Landsort, Sweden

11:03 AM CEST on July 29, 2014 (GMT +0200)
Skavsta (ESKN) Elev 141 ft | 58.79 °N, 16.91 °E | Change Station

Current weather conditions updated 13 minutes ago

Partly Cloudy
Partly Cloudy
81 °F
Feels Like 81 °F
N
7
Wind Variable Wind from NW

Today is forecast to be nearly the same temperature as yesterday.

Today
High -- | Low -- °F
--% Chance of Precip.
Yesterday
High -- | Low -- °F
Precip. -- in
4:30 AM 9:18 PM
Waxing Crescent, 5% visible
Pressure 29.86 in
Visibility 6.2 miles
Clouds Few 4400 ft
Heat Index 81 °F
Dew Point 59 °F
Humidity 48%
Rainfall 0.00 in
Snow Depth Not available.
UV 7 out of 12
Pollen Not available.
Air Quality Not available.
Flu Activity Not available.
METAR ESKN 290850Z 31006KT 270V350 9999 FEW044 27/15 Q1011

More Conditions Fewer Conditions

Pressure 29.86 in
Visibility 6.2 miles
Clouds Few 4400 ft
Heat Index 81 °F
Dew Point 59 °F
Humidity 48%
Rainfall 0.00 in
Snow Depth Not available.
UV 7 out of 12
Pollen Not available.
Air Quality Not available.
Flu Activity Not available.
METAR ESKN 290850Z 31006KT 270V350 9999 FEW044 27/15 Q1011

More Conditions Fewer Conditions

10-Day Weather Forecast

Almanac

Astronomy

Jul. 29, 2014 Rise Set
Actual Time 4:30 AM CEST 9:18 PM CEST
Civil Twilight 3:32 AM CEST 10:15 PM CEST
Nautical Twilight 1:34 AM CEST 12:05 AM CEST
Astronomical Twilight Sun does not rise Sun does not rise
Moon 7:38 AM CEST 9:26 PM CEST
Length of Visible Light 18h 43m
Length of Day
16h 47m
Tomorrow will be 4m 21s shorter.
Waxing Crescent, 5% of the Moon is Illuminated
Today
Waxing Crescent
Aug 3
First Quarter
Aug 10
Full
Aug 17
Last Quarter
Aug 25
New

Yesterday's Extremes

Country Highs Country Lows

Community

WunderPhotos

Upload Photos

1,738,655 photos uploaded!

Nearby

Snow Depth

Not available.

Earthquake Activity

City Distance Mag. Time & Date
No recent earthquake activity has been reported nearby.
Minimum magnitude displayed is 2.5.

Coastal Water Temperatures

Place Temperature
No Stations Reporting

Nearby Weather Stations

Station Location Temp. Heat Index Dew Point Humidity Wind Precip. Elev Updated Type
Korunda, Brazuca, Stockholm County 75.7 °F 77 °F 66 °F 71% South  at  0.4 mph 0.00 in / hr 105 ft 8:04 AM CEST Rapid Fire

Show More Stations Show Fewer Stations